sensor_id;sensor_type;location;lat;lon;timestamp;temperature;humidity
61253;DHT22;47127;47.516;8.596;2022-08-11T00:00:42;19.20;74.10
61253;DHT22;47127;47.516;8.596;2022-08-11T00:03:11;19.10;74.30
61253;DHT22;47127;47.516;8.596;2022-08-11T00:05:50;19.10;74.70
61253;DHT22;47127;47.516;8.596;2022-08-11T00:08:27;19.00;74.80
61253;DHT22;47127;47.516;8.596;2022-08-11T00:10:56;19.00;74.90
61253;DHT22;47127;47.516;8.596;2022-08-11T00:13:38;19.00;74.80
61253;DHT22;47127;47.516;8.596;2022-08-11T00:16:11;19.10;74.40
61253;DHT22;47127;47.516;8.596;2022-08-11T00:18:39;19.10;74.60
61253;DHT22;47127;47.516;8.596;2022-08-11T00:21:06;19.00;75.20
61253;DHT22;47127;47.516;8.596;2022-08-11T00:23:32;19.00;75.60
61253;DHT22;47127;47.516;8.596;2022-08-11T00:25:59;19.00;76.10
61253;DHT22;47127;47.516;8.596;2022-08-11T00:28:32;19.00;76.20
61253;DHT22;47127;47.516;8.596;2022-08-11T00:31:01;19.00;76.10
61253;DHT22;47127;47.516;8.596;2022-08-11T00:33:42;18.90;76.30
61253;DHT22;47127;47.516;8.596;2022-08-11T00:36:10;18.80;76.90
61253;DHT22;47127;47.516;8.596;2022-08-11T00:38:38;18.80;76.90
61253;DHT22;47127;47.516;8.596;2022-08-11T00:44:35;18.80;77.20
61253;DHT22;47127;47.516;8.596;2022-08-11T00:53:42;18.70;77.30
61253;DHT22;47127;47.516;8.596;2022-08-11T01:09:18;18.20;80.70
61253;DHT22;47127;47.516;8.596;2022-08-11T01:14:57;18.10;81.30
61253;DHT22;47127;47.516;8.596;2022-08-11T01:49:31;18.30;82.50
61253;DHT22;47127;47.516;8.596;2022-08-11T01:52:19;18.20;83.00
61253;DHT22;47127;47.516;8.596;2022-08-11T01:58:41;18.20;83.80
61253;DHT22;47127;47.516;8.596;2022-08-11T02:04:08;18.10;85.20
61253;DHT22;47127;47.516;8.596;2022-08-11T02:06:54;17.90;85.00
61253;DHT22;47127;47.516;8.596;2022-08-11T02:12:34;17.90;85.20
61253;DHT22;47127;47.516;8.596;2022-08-11T02:15:13;17.90;85.30
61253;DHT22;47127;47.516;8.596;2022-08-11T02:26:13;18.00;85.40
61253;DHT22;47127;47.516;8.596;2022-08-11T02:28:48;17.90;85.90
61253;DHT22;47127;47.516;8.596;2022-08-11T02:39:46;17.70;87.80
61253;DHT22;47127;47.516;8.596;2022-08-11T02:54:20;17.50;89.40
61253;DHT22;47127;47.516;8.596;2022-08-11T02:57:05;17.40;89.90
61253;DHT22;47127;47.516;8.596;2022-08-11T02:59:56;17.40;90.20
61253;DHT22;47127;47.516;8.596;2022-08-11T03:11:11;17.10;91.40
61253;DHT22;47127;47.516;8.596;2022-08-11T03:20:22;17.40;91.50
61253;DHT22;47127;47.516;8.596;2022-08-11T03:23:05;17.40;91.30
61253;DHT22;47127;47.516;8.596;2022-08-11T03:25:54;17.10;91.60
61253;DHT22;47127;47.516;8.596;2022-08-11T03:31:33;16.90;92.10
61253;DHT22;47127;47.516;8.596;2022-08-11T03:34:06;17.10;92.00
61253;DHT22;47127;47.516;8.596;2022-08-11T03:59:32;17.30;91.60
61253;DHT22;47127;47.516;8.596;2022-08-11T04:08:21;16.90;92.20
61253;DHT22;47127;47.516;8.596;2022-08-11T04:14:03;17.00;92.10
61253;DHT22;47127;47.516;8.596;2022-08-11T04:30:52;17.20;92.20
61253;DHT22;47127;47.516;8.596;2022-08-11T04:33:54;17.00;92.30
61253;DHT22;47127;47.516;8.596;2022-08-11T04:52:15;17.30;92.40
61253;DHT22;47127;47.516;8.596;2022-08-11T05:13:33;17.20;92.10
61253;DHT22;47127;47.516;8.596;2022-08-11T05:16:26;17.30;92.00
61253;DHT22;47127;47.516;8.596;2022-08-11T05:19:16;17.30;92.00
61253;DHT22;47127;47.516;8.596;2022-08-11T05:22:02;17.40;92.00
61253;DHT22;47127;47.516;8.596;2022-08-11T05:24:55;17.60;91.90
61253;DHT22;47127;47.516;8.596;2022-08-11T05:30:41;17.90;91.30
61253;DHT22;47127;47.516;8.596;2022-08-11T05:33:33;18.00;91.10
61253;DHT22;47127;47.516;8.596;2022-08-11T05:39:02;18.20;90.80
61253;DHT22;47127;47.516;8.596;2022-08-11T05:41:48;18.40;90.60
61253;DHT22;47127;47.516;8.596;2022-08-11T05:44:34;18.50;90.30
61253;DHT22;47127;47.516;8.596;2022-08-11T05:47:25;18.50;90.40
61253;DHT22;47127;47.516;8.596;2022-08-11T05:50:13;18.60;90.50
61253;DHT22;47127;47.516;8.596;2022-08-11T05:52:58;18.70;90.90
61253;DHT22;47127;47.516;8.596;2022-08-11T05:55:44;18.60;91.00
61253;DHT22;47127;47.516;8.596;2022-08-11T05:58:34;18.70;91.00
61253;DHT22;47127;47.516;8.596;2022-08-11T06:01:01;18.70;90.20
61253;DHT22;47127;47.516;8.596;2022-08-11T06:03:29;18.90;90.00
61253;DHT22;47127;47.516;8.596;2022-08-11T06:05:56;18.90;89.30
61253;DHT22;47127;47.516;8.596;2022-08-11T06:08:28;19.10;89.00
61253;DHT22;47127;47.516;8.596;2022-08-11T06:10:59;19.10;88.80
61253;DHT22;47127;47.516;8.596;2022-08-11T06:13:26;19.10;89.30
61253;DHT22;47127;47.516;8.596;2022-08-11T06:15:52;19.30;88.70
61253;DHT22;47127;47.516;8.596;2022-08-11T06:18:20;19.40;88.20
61253;DHT22;47127;47.516;8.596;2022-08-11T06:20:48;19.50;88.00
61253;DHT22;47127;47.516;8.596;2022-08-11T06:23:15;19.50;87.30
61253;DHT22;47127;47.516;8.596;2022-08-11T06:25:47;19.60;87.00
61253;DHT22;47127;47.516;8.596;2022-08-11T06:28:15;19.70;85.40
61253;DHT22;47127;47.516;8.596;2022-08-11T06:30:44;19.70;85.40
61253;DHT22;47127;47.516;8.596;2022-08-11T06:33:16;19.80;84.90
61253;DHT22;47127;47.516;8.596;2022-08-11T06:38:48;20.10;83.40
61253;DHT22;47127;47.516;8.596;2022-08-11T06:41:39;20.20;83.30
61253;DHT22;47127;47.516;8.596;2022-08-11T06:46:49;20.50;82.10
61253;DHT22;47127;47.516;8.596;2022-08-11T06:49:18;20.60;81.40
61253;DHT22;47127;47.516;8.596;2022-08-11T06:52:05;20.50;81.00
61253;DHT22;47127;47.516;8.596;2022-08-11T06:54:35;20.60;80.50
61253;DHT22;47127;47.516;8.596;2022-08-11T06:57:02;20.70;80.50
61253;DHT22;47127;47.516;8.596;2022-08-11T06:59:48;20.80;80.10
61253;DHT22;47127;47.516;8.596;2022-08-11T07:02:44;20.80;79.90
61253;DHT22;47127;47.516;8.596;2022-08-11T07:05:21;21.00;79.90
61253;DHT22;47127;47.516;8.596;2022-08-11T07:14:10;21.00;78.90
61253;DHT22;47127;47.516;8.596;2022-08-11T07:16:56;21.00;78.90
61253;DHT22;47127;47.516;8.596;2022-08-11T07:19:27;21.10;79.70
61253;DHT22;47127;47.516;8.596;2022-08-11T07:22:12;21.20;78.70
61253;DHT22;47127;47.516;8.596;2022-08-11T07:25:08;21.30;78.40
61253;DHT22;47127;47.516;8.596;2022-08-11T07:28:28;21.20;78.50
61253;DHT22;47127;47.516;8.596;2022-08-11T07:31:17;21.40;78.30
61253;DHT22;47127;47.516;8.596;2022-08-11T07:33:52;21.20;78.50
61253;DHT22;47127;47.516;8.596;2022-08-11T07:36:21;21.40;78.10
61253;DHT22;47127;47.516;8.596;2022-08-11T07:38:49;21.40;77.80
61253;DHT22;47127;47.516;8.596;2022-08-11T07:41:21;21.40;77.60
61253;DHT22;47127;47.516;8.596;2022-08-11T07:43:56;21.60;77.10
61253;DHT22;47127;47.516;8.596;2022-08-11T07:46:48;21.50;77.10
61253;DHT22;47127;47.516;8.596;2022-08-11T07:49:38;21.60;77.50
61253;DHT22;47127;47.516;8.596;2022-08-11T07:52:32;21.50;77.50
61253;DHT22;47127;47.516;8.596;2022-08-11T07:55:02;21.70;76.90
61253;DHT22;47127;47.516;8.596;2022-08-11T07:57:30;21.90;77.00
61253;DHT22;47127;47.516;8.596;2022-08-11T08:00:15;21.90;76.90
61253;DHT22;47127;47.516;8.596;2022-08-11T08:03:00;22.00;76.30
61253;DHT22;47127;47.516;8.596;2022-08-11T08:05:46;21.90;76.70
61253;DHT22;47127;47.516;8.596;2022-08-11T08:08:31;22.00;76.50
61253;DHT22;47127;47.516;8.596;2022-08-11T08:11:19;22.10;76.40
61253;DHT22;47127;47.516;8.596;2022-08-11T08:14:05;22.10;76.30
61253;DHT22;47127;47.516;8.596;2022-08-11T08:16:50;22.10;76.70
61253;DHT22;47127;47.516;8.596;2022-08-11T08:19:35;22.20;76.50
61253;DHT22;47127;47.516;8.596;2022-08-11T08:22:02;22.40;76.30
61253;DHT22;47127;47.516;8.596;2022-08-11T08:24:28;22.40;76.00
61253;DHT22;47127;47.516;8.596;2022-08-11T08:26:54;22.50;76.00
61253;DHT22;47127;47.516;8.596;2022-08-11T08:29:30;22.40;75.50
61253;DHT22;47127;47.516;8.596;2022-08-11T08:32:16;22.40;75.90
61253;DHT22;47127;47.516;8.596;2022-08-11T08:34:42;22.40;76.00
61253;DHT22;47127;47.516;8.596;2022-08-11T08:37:08;22.50;75.90
61253;DHT22;47127;47.516;8.596;2022-08-11T08:39:35;22.60;76.40
61253;DHT22;47127;47.516;8.596;2022-08-11T08:42:09;22.60;75.80
61253;DHT22;47127;47.516;8.596;2022-08-11T08:44:41;22.80;75.30
61253;DHT22;47127;47.516;8.596;2022-08-11T08:47:11;22.90;74.90
61253;DHT22;47127;47.516;8.596;2022-08-11T08:49:43;22.90;74.50
61253;DHT22;47127;47.516;8.596;2022-08-11T08:52:13;22.80;75.20
61253;DHT22;47127;47.516;8.596;2022-08-11T08:54:42;22.90;75.00
61253;DHT22;47127;47.516;8.596;2022-08-11T08:57:09;23.00;74.20
61253;DHT22;47127;47.516;8.596;2022-08-11T08:59:41;23.00;74.10
61253;DHT22;47127;47.516;8.596;2022-08-11T09:02:09;23.10;74.50
61253;DHT22;47127;47.516;8.596;2022-08-11T09:04:39;23.20;73.30
61253;DHT22;47127;47.516;8.596;2022-08-11T09:07:10;23.10;73.50
61253;DHT22;47127;47.516;8.596;2022-08-11T09:09:58;23.00;74.00
61253;DHT22;47127;47.516;8.596;2022-08-11T09:12:30;23.10;74.40
61253;DHT22;47127;47.516;8.596;2022-08-11T09:14:56;23.20;74.00
61253;DHT22;47127;47.516;8.596;2022-08-11T09:17:47;23.30;73.60
61253;DHT22;47127;47.516;8.596;2022-08-11T09:20:23;23.40;73.60
61253;DHT22;47127;47.516;8.596;2022-08-11T09:22:55;23.50;74.50
61253;DHT22;47127;47.516;8.596;2022-08-11T09:25:40;23.60;73.20
61253;DHT22;47127;47.516;8.596;2022-08-11T09:28:27;23.40;73.60
61253;DHT22;47127;47.516;8.596;2022-08-11T09:30:54;23.60;73.20
61253;DHT22;47127;47.516;8.596;2022-08-11T09:33:23;23.80;72.60
61253;DHT22;47127;47.516;8.596;2022-08-11T09:35:51;23.80;72.30
61253;DHT22;47127;47.516;8.596;2022-08-11T09:38:19;23.90;72.70
61253;DHT22;47127;47.516;8.596;2022-08-11T09:41:07;24.10;72.20
61253;DHT22;47127;47.516;8.596;2022-08-11T09:43:38;24.00;72.10
61253;DHT22;47127;47.516;8.596;2022-08-11T09:46:26;24.00;72.50
61253;DHT22;47127;47.516;8.596;2022-08-11T09:48:54;24.10;72.50
61253;DHT22;47127;47.516;8.596;2022-08-11T09:51:24;24.10;73.10
61253;DHT22;47127;47.516;8.596;2022-08-11T09:53:51;24.40;71.50
61253;DHT22;47127;47.516;8.596;2022-08-11T09:56:19;24.50;70.80
61253;DHT22;47127;47.516;8.596;2022-08-11T09:59:05;24.40;71.20
61253;DHT22;47127;47.516;8.596;2022-08-11T10:01:38;24.40;71.30
61253;DHT22;47127;47.516;8.596;2022-08-11T10:06:52;24.40;71.50
61253;DHT22;47127;47.516;8.596;2022-08-11T10:10:00;24.60;71.30
61253;DHT22;47127;47.516;8.596;2022-08-11T10:12:34;24.70;70.90
61253;DHT22;47127;47.516;8.596;2022-08-11T10:15:04;24.80;70.30
61253;DHT22;47127;47.516;8.596;2022-08-11T10:17:56;25.10;69.90
61253;DHT22;47127;47.516;8.596;2022-08-11T10:20:42;25.30;70.10
61253;DHT22;47127;47.516;8.596;2022-08-11T10:23:09;25.40;69.50
61253;DHT22;47127;47.516;8.596;2022-08-11T10:25:56;25.50;68.70
61253;DHT22;47127;47.516;8.596;2022-08-11T10:28:41;25.60;68.20
61253;DHT22;47127;47.516;8.596;2022-08-11T10:31:08;25.60;68.30
61253;DHT22;47127;47.516;8.596;2022-08-11T10:33:53;25.60;67.90
61253;DHT22;47127;47.516;8.596;2022-08-11T10:36:27;25.80;68.50
61253;DHT22;47127;47.516;8.596;2022-08-11T10:38:53;25.80;68.20
61253;DHT22;47127;47.516;8.596;2022-08-11T10:41:20;25.90;67.50
61253;DHT22;47127;47.516;8.596;2022-08-11T10:44:06;25.80;67.90
61253;DHT22;47127;47.516;8.596;2022-08-11T10:46:33;26.00;67.20
61253;DHT22;47127;47.516;8.596;2022-08-11T10:49:19;26.20;66.40
61253;DHT22;47127;47.516;8.596;2022-08-11T10:51:46;26.30;66.10
61253;DHT22;47127;47.516;8.596;2022-08-11T10:54:32;26.20;66.10
61253;DHT22;47127;47.516;8.596;2022-08-11T10:57:17;26.30;66.00
61253;DHT22;47127;47.516;8.596;2022-08-11T11:00:04;26.50;65.60
61253;DHT22;47127;47.516;8.596;2022-08-11T11:02:32;26.50;65.20
61253;DHT22;47127;47.516;8.596;2022-08-11T11:05:14;26.60;64.40
61253;DHT22;47127;47.516;8.596;2022-08-11T11:10:09;26.80;64.00
61253;DHT22;47127;47.516;8.596;2022-08-11T11:12:40;26.90;63.90
61253;DHT22;47127;47.516;8.596;2022-08-11T11:15:29;26.80;63.80
61253;DHT22;47127;47.516;8.596;2022-08-11T11:18:24;26.90;63.90
61253;DHT22;47127;47.516;8.596;2022-08-11T11:20:59;27.10;63.50
61253;DHT22;47127;47.516;8.596;2022-08-11T11:23:33;27.00;63.60
61253;DHT22;47127;47.516;8.596;2022-08-11T11:26:24;27.30;63.70
61253;DHT22;47127;47.516;8.596;2022-08-11T11:37:38;27.80;62.80
61253;DHT22;47127;47.516;8.596;2022-08-11T11:40:10;27.70;63.00
61253;DHT22;47127;47.516;8.596;2022-08-11T11:42:38;27.80;62.50
61253;DHT22;47127;47.516;8.596;2022-08-11T11:45:05;27.90;61.80
61253;DHT22;47127;47.516;8.596;2022-08-11T11:47:31;28.10;61.10
61253;DHT22;47127;47.516;8.596;2022-08-11T11:49:58;28.40;61.20
61253;DHT22;47127;47.516;8.596;2022-08-11T11:52:24;28.30;60.80
61253;DHT22;47127;47.516;8.596;2022-08-11T11:54:54;28.20;60.80
61253;DHT22;47127;47.516;8.596;2022-08-11T11:57:21;28.30;61.40
61253;DHT22;47127;47.516;8.596;2022-08-11T12:00:08;28.10;61.50
61253;DHT22;47127;47.516;8.596;2022-08-11T12:02:57;28.30;61.30
61253;DHT22;47127;47.516;8.596;2022-08-11T12:05:25;28.60;60.30
61253;DHT22;47127;47.516;8.596;2022-08-11T12:07:52;28.50;60.70
61253;DHT22;47127;47.516;8.596;2022-08-11T12:10:37;28.50;61.60
61253;DHT22;47127;47.516;8.596;2022-08-11T12:13:04;28.40;60.90
61253;DHT22;47127;47.516;8.596;2022-08-11T12:15:49;28.70;60.50
61253;DHT22;47127;47.516;8.596;2022-08-11T12:18:16;28.70;60.60
61253;DHT22;47127;47.516;8.596;2022-08-11T12:20:43;29.00;59.20
61253;DHT22;47127;47.516;8.596;2022-08-11T12:23:10;28.90;59.40
61253;DHT22;47127;47.516;8.596;2022-08-11T12:25:55;28.50;60.20
61253;DHT22;47127;47.516;8.596;2022-08-11T12:28:40;28.90;59.90
61253;DHT22;47127;47.516;8.596;2022-08-11T12:31:06;29.10;59.80
61253;DHT22;47127;47.516;8.596;2022-08-11T12:33:35;29.10;59.20
61253;DHT22;47127;47.516;8.596;2022-08-11T12:36:01;29.30;59.30
61253;DHT22;47127;47.516;8.596;2022-08-11T12:38:28;29.30;58.90
61253;DHT22;47127;47.516;8.596;2022-08-11T12:40:55;29.50;58.70
61253;DHT22;47127;47.516;8.596;2022-08-11T12:43:42;29.60;58.20
61253;DHT22;47127;47.516;8.596;2022-08-11T12:46:33;29.90;57.80
61253;DHT22;47127;47.516;8.596;2022-08-11T12:49:09;29.90;57.60
61253;DHT22;47127;47.516;8.596;2022-08-11T12:51:57;30.10;57.30
61253;DHT22;47127;47.516;8.596;2022-08-11T12:57:07;29.60;56.90
61253;DHT22;47127;47.516;8.596;2022-08-11T12:59:53;29.60;57.90
61253;DHT22;47127;47.516;8.596;2022-08-11T13:02:39;29.60;57.70
61253;DHT22;47127;47.516;8.596;2022-08-11T13:05:24;29.90;57.70
61253;DHT22;47127;47.516;8.596;2022-08-11T13:07:51;30.10;56.90
61253;DHT22;47127;47.516;8.596;2022-08-11T13:10:18;29.70;57.80
61253;DHT22;47127;47.516;8.596;2022-08-11T13:13:05;29.80;57.30
61253;DHT22;47127;47.516;8.596;2022-08-11T13:15:31;30.10;57.00
61253;DHT22;47127;47.516;8.596;2022-08-11T13:17:58;30.00;56.80
61253;DHT22;47127;47.516;8.596;2022-08-11T13:20:25;30.20;56.80
61253;DHT22;47127;47.516;8.596;2022-08-11T13:22:54;30.20;56.50
61253;DHT22;47127;47.516;8.596;2022-08-11T13:25:22;30.60;56.20
61253;DHT22;47127;47.516;8.596;2022-08-11T13:27:50;30.70;56.00
61253;DHT22;47127;47.516;8.596;2022-08-11T13:30:16;30.70;55.20
61253;DHT22;47127;47.516;8.596;2022-08-11T13:33:03;30.40;55.30
61253;DHT22;47127;47.516;8.596;2022-08-11T13:35:33;30.80;54.70
61253;DHT22;47127;47.516;8.596;2022-08-11T13:38:01;30.80;54.60
61253;DHT22;47127;47.516;8.596;2022-08-11T13:40:28;30.90;54.50
61253;DHT22;47127;47.516;8.596;2022-08-11T13:42:55;31.00;54.20
61253;DHT22;47127;47.516;8.596;2022-08-11T13:45:24;30.90;54.60
61253;DHT22;47127;47.516;8.596;2022-08-11T13:47:52;31.00;54.30
61253;DHT22;47127;47.516;8.596;2022-08-11T13:50:19;31.00;54.40
61253;DHT22;47127;47.516;8.596;2022-08-11T13:52:48;31.00;54.40
61253;DHT22;47127;47.516;8.596;2022-08-11T13:55:14;31.00;54.60
61253;DHT22;47127;47.516;8.596;2022-08-11T13:57:52;30.70;54.80
61253;DHT22;47127;47.516;8.596;2022-08-11T14:00:19;30.80;54.60
61253;DHT22;47127;47.516;8.596;2022-08-11T14:02:47;30.90;53.50
61253;DHT22;47127;47.516;8.596;2022-08-11T14:05:16;30.80;54.00
61253;DHT22;47127;47.516;8.596;2022-08-11T14:07:59;30.70;54.00
61253;DHT22;47127;47.516;8.596;2022-08-11T14:10:29;30.80;54.50
61253;DHT22;47127;47.516;8.596;2022-08-11T14:13:00;31.00;53.40
61253;DHT22;47127;47.516;8.596;2022-08-11T14:15:46;30.90;51.90
61253;DHT22;47127;47.516;8.596;2022-08-11T14:18:23;30.90;51.80
61253;DHT22;47127;47.516;8.596;2022-08-11T14:20:56;30.80;52.10
61253;DHT22;47127;47.516;8.596;2022-08-11T14:23:45;30.90;51.80
61253;DHT22;47127;47.516;8.596;2022-08-11T14:26:14;30.90;52.40
61253;DHT22;47127;47.516;8.596;2022-08-11T14:29:27;31.40;52.20
61253;DHT22;47127;47.516;8.596;2022-08-11T14:31:57;31.40;53.00
61253;DHT22;47127;47.516;8.596;2022-08-11T14:34:24;31.50;52.80
61253;DHT22;47127;47.516;8.596;2022-08-11T14:36:53;30.80;53.20
61253;DHT22;47127;47.516;8.596;2022-08-11T14:39:27;30.70;52.90
61253;DHT22;47127;47.516;8.596;2022-08-11T14:41:59;31.20;52.50
61253;DHT22;47127;47.516;8.596;2022-08-11T14:44:46;31.50;51.90
61253;DHT22;47127;47.516;8.596;2022-08-11T14:47:30;31.60;52.20
61253;DHT22;47127;47.516;8.596;2022-08-11T14:49:57;31.70;51.70
61253;DHT22;47127;47.516;8.596;2022-08-11T14:52:23;31.70;51.60
61253;DHT22;47127;47.516;8.596;2022-08-11T14:54:51;32.00;50.40
61253;DHT22;47127;47.516;8.596;2022-08-11T14:57:37;32.10;50.80
61253;DHT22;47127;47.516;8.596;2022-08-11T15:00:06;32.10;51.50
61253;DHT22;47127;47.516;8.596;2022-08-11T15:02:37;32.20;50.60
61253;DHT22;47127;47.516;8.596;2022-08-11T15:05:23;32.20;49.50
61253;DHT22;47127;47.516;8.596;2022-08-11T15:07:51;32.40;49.20
61253;DHT22;47127;47.516;8.596;2022-08-11T15:10:20;32.50;49.40
61253;DHT22;47127;47.516;8.596;2022-08-11T15:12:46;32.60;49.30
61253;DHT22;47127;47.516;8.596;2022-08-11T15:15:12;32.60;49.50
61253;DHT22;47127;47.516;8.596;2022-08-11T15:17:59;32.20;49.20
61253;DHT22;47127;47.516;8.596;2022-08-11T15:20:27;31.80;49.70
61253;DHT22;47127;47.516;8.596;2022-08-11T15:23:12;32.00;49.80
61253;DHT22;47127;47.516;8.596;2022-08-11T15:26:18;32.10;49.80
61253;DHT22;47127;47.516;8.596;2022-08-11T15:29:06;32.40;48.80
61253;DHT22;47127;47.516;8.596;2022-08-11T15:31:51;32.50;48.90
61253;DHT22;47127;47.516;8.596;2022-08-11T15:34:35;32.70;48.50
61253;DHT22;47127;47.516;8.596;2022-08-11T15:37:21;32.60;48.60
61253;DHT22;47127;47.516;8.596;2022-08-11T15:40:11;32.70;48.50
61253;DHT22;47127;47.516;8.596;2022-08-11T15:43:20;32.60;48.30
61253;DHT22;47127;47.516;8.596;2022-08-11T15:46:19;32.60;47.70
61253;DHT22;47127;47.516;8.596;2022-08-11T15:48:48;32.70;47.50
61253;DHT22;47127;47.516;8.596;2022-08-11T15:51:35;32.80;47.60
61253;DHT22;47127;47.516;8.596;2022-08-11T15:54:07;32.90;47.50
61253;DHT22;47127;47.516;8.596;2022-08-11T15:56:35;32.90;48.00
61253;DHT22;47127;47.516;8.596;2022-08-11T15:59:04;32.90;48.40
61253;DHT22;47127;47.516;8.596;2022-08-11T16:01:50;32.80;48.20
61253;DHT22;47127;47.516;8.596;2022-08-11T16:04:37;32.80;48.00
61253;DHT22;47127;47.516;8.596;2022-08-11T16:07:09;33.10;46.30
61253;DHT22;47127;47.516;8.596;2022-08-11T16:12:39;32.70;47.00
61253;DHT22;47127;47.516;8.596;2022-08-11T16:15:08;32.70;47.50
61253;DHT22;47127;47.516;8.596;2022-08-11T16:17:58;32.50;47.50
61253;DHT22;47127;47.516;8.596;2022-08-11T16:20:27;32.60;47.80
61253;DHT22;47127;47.516;8.596;2022-08-11T16:22:55;32.80;47.60
61253;DHT22;47127;47.516;8.596;2022-08-11T16:25:24;32.80;47.10
61253;DHT22;47127;47.516;8.596;2022-08-11T16:27:55;33.10;46.80
61253;DHT22;47127;47.516;8.596;2022-08-11T16:30:25;33.00;46.90
61253;DHT22;47127;47.516;8.596;2022-08-11T16:32:53;32.80;47.00
61253;DHT22;47127;47.516;8.596;2022-08-11T16:35:22;32.50;47.30
61253;DHT22;47127;47.516;8.596;2022-08-11T16:38:07;32.30;47.40
61253;DHT22;47127;47.516;8.596;2022-08-11T16:40:53;32.00;48.00
61253;DHT22;47127;47.516;8.596;2022-08-11T16:43:22;32.00;48.00
61253;DHT22;47127;47.516;8.596;2022-08-11T16:46:08;32.10;48.00
61253;DHT22;47127;47.516;8.596;2022-08-11T16:48:54;32.10;47.90
61253;DHT22;47127;47.516;8.596;2022-08-11T16:51:21;32.40;47.40
61253;DHT22;47127;47.516;8.596;2022-08-11T16:53:49;32.20;47.30
61253;DHT22;47127;47.516;8.596;2022-08-11T16:56:18;32.40;47.30
61253;DHT22;47127;47.516;8.596;2022-08-11T16:58:51;32.30;47.40
61253;DHT22;47127;47.516;8.596;2022-08-11T17:01:37;31.70;47.90
61253;DHT22;47127;47.516;8.596;2022-08-11T17:04:35;31.90;47.90
61253;DHT22;47127;47.516;8.596;2022-08-11T17:07:23;32.10;47.90
61253;DHT22;47127;47.516;8.596;2022-08-11T17:10:12;32.20;48.30
61253;DHT22;47127;47.516;8.596;2022-08-11T17:12:59;32.20;48.40
61253;DHT22;47127;47.516;8.596;2022-08-11T17:15:40;32.60;47.90
61253;DHT22;47127;47.516;8.596;2022-08-11T17:18:25;32.80;47.30
61253;DHT22;47127;47.516;8.596;2022-08-11T17:23:40;32.50;47.20
61253;DHT22;47127;47.516;8.596;2022-08-11T17:29:25;32.60;46.80
61253;DHT22;47127;47.516;8.596;2022-08-11T17:31:51;32.40;46.80
61253;DHT22;47127;47.516;8.596;2022-08-11T17:34:38;32.50;46.80
61253;DHT22;47127;47.516;8.596;2022-08-11T17:37:23;32.60;47.10
61253;DHT22;47127;47.516;8.596;2022-08-11T17:39:50;32.70;47.20
61253;DHT22;47127;47.516;8.596;2022-08-11T17:42:16;32.70;47.30
61253;DHT22;47127;47.516;8.596;2022-08-11T17:45:02;32.40;47.60
61253;DHT22;47127;47.516;8.596;2022-08-11T17:47:47;32.30;47.70
61253;DHT22;47127;47.516;8.596;2022-08-11T17:50:33;32.40;47.70
61253;DHT22;47127;47.516;8.596;2022-08-11T17:53:00;32.70;47.00
61253;DHT22;47127;47.516;8.596;2022-08-11T17:55:46;32.70;47.40
61253;DHT22;47127;47.516;8.596;2022-08-11T17:58:31;33.30;46.80
61253;DHT22;47127;47.516;8.596;2022-08-11T18:01:33;34.20;46.20
61253;DHT22;47127;47.516;8.596;2022-08-11T18:04:05;35.30;45.40
61253;DHT22;47127;47.516;8.596;2022-08-11T18:06:32;35.50;45.10
61253;DHT22;47127;47.516;8.596;2022-08-11T18:09:00;36.00;44.80
61253;DHT22;47127;47.516;8.596;2022-08-11T18:11:46;34.80;45.40
61253;DHT22;47127;47.516;8.596;2022-08-11T18:14:32;33.40;46.40
61253;DHT22;47127;47.516;8.596;2022-08-11T18:17:19;32.30;47.30
61253;DHT22;47127;47.516;8.596;2022-08-11T18:20:05;31.50;48.10
61253;DHT22;47127;47.516;8.596;2022-08-11T18:22:51;30.80;49.00
61253;DHT22;47127;47.516;8.596;2022-08-11T18:25:43;30.00;50.20
61253;DHT22;47127;47.516;8.596;2022-08-11T18:28:31;29.60;50.80
61253;DHT22;47127;47.516;8.596;2022-08-11T18:31:20;29.10;51.50
61253;DHT22;47127;47.516;8.596;2022-08-11T18:34:06;28.80;52.20
61253;DHT22;47127;47.516;8.596;2022-08-11T18:37:05;28.40;53.90
61253;DHT22;47127;47.516;8.596;2022-08-11T18:40:02;27.90;54.90
61253;DHT22;47127;47.516;8.596;2022-08-11T18:42:49;27.70;54.20
61253;DHT22;47127;47.516;8.596;2022-08-11T18:45:35;27.50;54.30
61253;DHT22;47127;47.516;8.596;2022-08-11T18:48:22;27.50;54.70
61253;DHT22;47127;47.516;8.596;2022-08-11T18:51:09;27.20;56.60
61253;DHT22;47127;47.516;8.596;2022-08-11T18:53:59;26.80;57.80
61253;DHT22;47127;47.516;8.596;2022-08-11T18:56:45;26.50;59.00
61253;DHT22;47127;47.516;8.596;2022-08-11T18:59:34;26.10;59.80
61253;DHT22;47127;47.516;8.596;2022-08-11T19:02:21;26.00;59.80
61253;DHT22;47127;47.516;8.596;2022-08-11T19:05:07;25.80;60.70
61253;DHT22;47127;47.516;8.596;2022-08-11T19:07:55;25.70;60.50
61253;DHT22;47127;47.516;8.596;2022-08-11T19:10:43;25.50;60.20
61253;DHT22;47127;47.516;8.596;2022-08-11T19:13:29;25.40;62.10
61253;DHT22;47127;47.516;8.596;2022-08-11T19:16:15;25.00;63.00
61253;DHT22;47127;47.516;8.596;2022-08-11T19:19:01;25.00;63.40
61253;DHT22;47127;47.516;8.596;2022-08-11T19:21:45;24.90;62.50
61253;DHT22;47127;47.516;8.596;2022-08-11T19:24:31;24.70;63.10
61253;DHT22;47127;47.516;8.596;2022-08-11T19:27:16;24.70;63.30
61253;DHT22;47127;47.516;8.596;2022-08-11T19:30:01;24.50;64.30
61253;DHT22;47127;47.516;8.596;2022-08-11T19:32:45;24.50;65.00
61253;DHT22;47127;47.516;8.596;2022-08-11T19:35:30;24.30;65.60
61253;DHT22;47127;47.516;8.596;2022-08-11T19:38:16;24.00;66.50
61253;DHT22;47127;47.516;8.596;2022-08-11T19:41:01;23.80;67.00
61253;DHT22;47127;47.516;8.596;2022-08-11T19:43:46;23.80;66.60
61253;DHT22;47127;47.516;8.596;2022-08-11T19:46:31;23.80;66.70
61253;DHT22;47127;47.516;8.596;2022-08-11T19:49:16;23.70;66.40
61253;DHT22;47127;47.516;8.596;2022-08-11T19:52:01;23.70;66.60
61253;DHT22;47127;47.516;8.596;2022-08-11T19:54:47;23.60;66.60
61253;DHT22;47127;47.516;8.596;2022-08-11T19:57:34;23.60;66.10
61253;DHT22;47127;47.516;8.596;2022-08-11T20:00:20;23.60;67.30
61253;DHT22;47127;47.516;8.596;2022-08-11T20:03:13;23.60;67.20
61253;DHT22;47127;47.516;8.596;2022-08-11T20:06:04;23.60;67.10
61253;DHT22;47127;47.516;8.596;2022-08-11T20:08:50;23.60;67.10
61253;DHT22;47127;47.516;8.596;2022-08-11T20:11:39;23.40;67.70
61253;DHT22;47127;47.516;8.596;2022-08-11T20:14:27;23.40;68.20
61253;DHT22;47127;47.516;8.596;2022-08-11T20:17:13;23.30;68.30
61253;DHT22;47127;47.516;8.596;2022-08-11T20:20:01;23.20;69.50
61253;DHT22;47127;47.516;8.596;2022-08-11T20:22:47;23.10;69.80
61253;DHT22;47127;47.516;8.596;2022-08-11T20:25:32;22.90;71.80
61253;DHT22;47127;47.516;8.596;2022-08-11T20:28:18;22.80;72.50
61253;DHT22;47127;47.516;8.596;2022-08-11T20:31:05;22.70;72.40
61253;DHT22;47127;47.516;8.596;2022-08-11T20:33:50;22.60;72.20
61253;DHT22;47127;47.516;8.596;2022-08-11T20:36:35;22.60;73.30